createdAt,value
2023-08-07T00:00:04.325Z,100.00
2023-08-07T00:01:08.170Z,100.00
2023-08-07T00:02:11.317Z,100.00
2023-08-07T00:03:19.652Z,100.00
2023-08-07T00:04:22.577Z,100.00
2023-08-07T00:05:25.306Z,100.00
2023-08-07T00:06:28.178Z,100.00
2023-08-07T00:07:31.248Z,100.00
2023-08-07T00:08:34.373Z,100.00
2023-08-07T00:09:37.052Z,100.00
2023-08-07T00:10:40.085Z,100.00
2023-08-07T00:11:42.850Z,100.00
2023-08-07T00:12:45.996Z,100.00
2023-08-07T00:13:48.744Z,100.00
2023-08-07T00:14:51.878Z,100.00
2023-08-07T00:15:54.638Z,100.00
2023-08-07T00:16:57.470Z,100.00
2023-08-07T00:18:01.579Z,100.00
2023-08-07T00:19:04.545Z,100.00
2023-08-07T00:20:08.713Z,100.00
2023-08-07T00:21:13.229Z,100.00
2023-08-07T00:22:16.044Z,100.00
2023-08-07T00:23:19.170Z,100.00
2023-08-07T00:24:21.939Z,100.00
2023-08-07T00:25:25.063Z,100.00
2023-08-07T00:26:27.804Z,100.00
2023-08-07T00:27:30.558Z,100.00
2023-08-07T00:28:33.847Z,100.00
2023-08-07T00:29:37.484Z,100.00
2023-08-07T00:30:40.311Z,100.00
2023-08-07T00:31:43.262Z,100.00
2023-08-07T00:32:46.196Z,100.00
2023-08-07T00:33:52.954Z,100.00
2023-08-07T00:34:55.685Z,100.00
2023-08-07T00:35:58.570Z,100.00
2023-08-07T00:37:01.439Z,100.00
2023-08-07T00:38:04.528Z,100.00
2023-08-07T00:39:08.930Z,100.00
2023-08-07T00:40:15.905Z,100.00
2023-08-07T00:41:19.582Z,100.00
2023-08-07T00:42:22.365Z,100.00
2023-08-07T00:43:25.236Z,100.00
2023-08-07T00:44:28.327Z,100.00
2023-08-07T00:45:35.802Z,100.00
2023-08-07T00:46:40.469Z,100.00
2023-08-07T00:47:43.473Z,100.00
2023-08-07T00:48:47.017Z,100.00
2023-08-07T00:49:50.310Z,100.00
2023-08-07T00:50:53.502Z,100.00
2023-08-07T00:51:56.672Z,100.00
2023-08-07T00:52:59.965Z,100.00
2023-08-07T00:54:05.175Z,100.00
2023-08-07T00:55:08.615Z,100.00
2023-08-07T00:56:11.508Z,100.00
2023-08-07T00:57:18.314Z,100.00
2023-08-07T00:58:21.212Z,100.00
2023-08-07T00:59:24.101Z,100.00
2023-08-07T01:00:30.106Z,100.00
2023-08-07T01:01:33.037Z,100.00
2023-08-07T01:02:36.654Z,100.00
2023-08-07T01:03:39.789Z,100.00
2023-08-07T01:04:42.569Z,100.00
2023-08-07T01:05:45.657Z,100.00
2023-08-07T01:06:48.394Z,100.00
2023-08-07T01:07:55.527Z,100.00
2023-08-07T01:08:58.844Z,100.00
2023-08-07T01:10:05.016Z,100.00
2023-08-07T01:11:26.442Z,100.00
2023-08-07T01:12:37.398Z,100.00
2023-08-07T01:14:01.778Z,100.00
2023-08-07T01:15:29.397Z,100.00
2023-08-07T01:17:06.543Z,100.00
2023-08-07T01:18:09.369Z,100.00
2023-08-07T01:19:26.187Z,100.00
2023-08-07T01:20:28.964Z,100.00
2023-08-07T01:21:33.864Z,100.00
2023-08-07T01:22:36.933Z,100.00
2023-08-07T01:23:39.816Z,100.00
2023-08-07T01:24:45.121Z,100.00
2023-08-07T01:25:47.831Z,100.00
2023-08-07T01:26:51.727Z,100.00
2023-08-07T01:28:03.430Z,100.00
2023-08-07T01:29:14.933Z,100.00
2023-08-07T01:30:36.801Z,100.00
2023-08-07T01:31:43.215Z,100.00
2023-08-07T01:32:45.930Z,100.00
2023-08-07T01:33:58.152Z,100.00
2023-08-07T01:35:06.683Z,100.00
2023-08-07T01:36:11.952Z,100.00
2023-08-07T01:37:14.894Z,100.00
2023-08-07T01:38:17.916Z,100.00
2023-08-07T01:39:21.658Z,100.00
2023-08-07T01:40:24.897Z,100.00
2023-08-07T01:41:29.970Z,100.00
2023-08-07T01:42:33.627Z,100.00
2023-08-07T01:43:36.897Z,100.00
2023-08-07T01:44:40.330Z,100.00
2023-08-07T01:45:43.188Z,100.00
2023-08-07T01:46:46.049Z,100.00
2023-08-07T01:47:48.930Z,100.00
2023-08-07T01:48:51.765Z,100.00
2023-08-07T01:49:54.954Z,100.00
2023-08-07T01:50:57.784Z,100.00
2023-08-07T01:52:00.500Z,100.00
2023-08-07T01:53:04.860Z,100.00
2023-08-07T01:54:07.645Z,100.00
2023-08-07T01:55:10.756Z,100.00
2023-08-07T01:56:13.420Z,100.00
2023-08-07T01:57:16.417Z,100.00
2023-08-07T01:58:19.189Z,100.00
2023-08-07T01:59:21.993Z,100.00
2023-08-07T02:00:25.037Z,100.00
2023-08-07T02:01:27.607Z,100.00
2023-08-07T02:02:30.821Z,100.00
2023-08-07T02:03:33.782Z,100.00
2023-08-07T02:04:37.034Z,100.00
2023-08-07T02:05:39.906Z,100.00
2023-08-07T02:06:42.770Z,100.00
2023-08-07T02:07:46.082Z,100.00
2023-08-07T02:08:48.833Z,100.00
2023-08-07T02:09:52.122Z,100.00
2023-08-07T02:10:54.996Z,100.00
2023-08-07T02:11:57.705Z,100.00
2023-08-07T02:13:00.785Z,100.00
2023-08-07T02:14:04.058Z,100.00
2023-08-07T02:15:07.477Z,100.00
2023-08-07T02:16:10.371Z,100.00
2023-08-07T02:17:13.519Z,100.00
2023-08-07T02:18:17.234Z,100.00
2023-08-07T02:19:21.148Z,100.00
2023-08-07T02:20:23.923Z,100.00
2023-08-07T02:21:26.649Z,100.00
2023-08-07T02:22:29.724Z,100.00
2023-08-07T02:23:32.445Z,100.00
2023-08-07T02:24:37.172Z,100.00
2023-08-07T02:25:39.880Z,100.00
2023-08-07T02:26:42.652Z,100.00
2023-08-07T02:27:45.894Z,100.00
2023-08-07T02:28:48.641Z,100.00
2023-08-07T02:29:52.294Z,100.00
2023-08-07T02:30:55.559Z,100.00
2023-08-07T02:31:58.418Z,100.00
2023-08-07T02:33:01.546Z,100.00
2023-08-07T02:34:04.361Z,100.00
2023-08-07T02:35:08.161Z,100.00
2023-08-07T02:36:11.031Z,100.00
2023-08-07T02:37:13.948Z,100.00
2023-08-07T02:38:17.096Z,100.00
2023-08-07T02:39:19.948Z,100.00
2023-08-07T02:40:22.720Z,100.00
2023-08-07T02:41:25.487Z,100.00
2023-08-07T02:42:28.310Z,100.00
2023-08-07T02:43:34.191Z,100.00
2023-08-07T02:44:37.089Z,100.00
2023-08-07T02:45:39.937Z,100.00
2023-08-07T02:46:42.742Z,100.00
2023-08-07T02:47:45.535Z,100.00
2023-08-07T02:48:48.679Z,100.00
2023-08-07T02:49:51.474Z,100.00
2023-08-07T02:50:54.748Z,100.00
2023-08-07T02:51:57.512Z,100.00
2023-08-07T02:53:01.937Z,100.00
2023-08-07T02:54:05.312Z,100.00
2023-08-07T02:55:08.460Z,100.00
2023-08-07T02:56:11.924Z,100.00
2023-08-07T02:57:14.850Z,100.00
2023-08-07T02:58:17.619Z,100.00
2023-08-07T02:59:20.853Z,100.00
2023-08-07T03:00:25.365Z,100.00
2023-08-07T03:01:28.924Z,100.00
2023-08-07T03:02:31.766Z,100.00
2023-08-07T03:03:34.517Z,100.00
2023-08-07T03:04:37.679Z,100.00
2023-08-07T03:05:40.451Z,100.00
2023-08-07T03:06:43.320Z,100.00
2023-08-07T03:07:46.120Z,100.00
2023-08-07T03:08:48.924Z,100.00
2023-08-07T03:09:52.355Z,100.00
2023-08-07T03:10:57.382Z,100.00
2023-08-07T03:12:04.707Z,100.00
2023-08-07T03:13:08.300Z,100.00
2023-08-07T03:14:11.448Z,100.00
2023-08-07T03:15:14.562Z,100.00
2023-08-07T03:16:17.462Z,100.00
2023-08-07T03:17:21.879Z,100.00
2023-08-07T03:18:24.819Z,100.00
2023-08-07T03:19:27.580Z,100.00
2023-08-07T03:20:30.717Z,100.00
2023-08-07T03:21:33.494Z,100.00
2023-08-07T03:22:36.259Z,100.00
2023-08-07T03:23:39.037Z,100.00
2023-08-07T03:24:41.991Z,100.00
2023-08-07T03:25:45.088Z,100.00
2023-08-07T03:26:50.344Z,100.00
2023-08-07T03:27:53.261Z,100.00
2023-08-07T03:28:55.962Z,100.00
2023-08-07T03:29:58.787Z,100.00
2023-08-07T03:31:02.800Z,100.00
2023-08-07T03:32:05.970Z,100.00
2023-08-07T03:33:09.521Z,100.00
2023-08-07T03:34:12.839Z,100.00
2023-08-07T03:35:15.805Z,100.00
2023-08-07T03:36:19.107Z,100.00
2023-08-07T03:37:21.822Z,100.00
2023-08-07T03:38:24.534Z,100.00
2023-08-07T03:39:27.912Z,100.00
2023-08-07T03:40:30.706Z,100.00
2023-08-07T03:41:33.784Z,100.00
2023-08-07T03:42:36.770Z,100.00
2023-08-07T03:43:39.613Z,100.00
2023-08-07T03:44:42.445Z,100.00
2023-08-07T03:45:45.275Z,100.00
2023-08-07T03:46:48.613Z,100.00
2023-08-07T03:47:51.395Z,100.00
2023-08-07T03:48:54.209Z,100.00
2023-08-07T03:49:57.174Z,100.00
2023-08-07T03:51:07.057Z,100.00
2023-08-07T03:52:11.372Z,100.00
2023-08-07T03:53:14.338Z,100.00
2023-08-07T03:54:17.524Z,100.00
2023-08-07T03:55:20.813Z,100.00
2023-08-07T03:56:23.586Z,100.00
2023-08-07T03:57:27.277Z,100.00
2023-08-07T03:58:30.661Z,100.00
2023-08-07T03:59:33.990Z,100.00
2023-08-07T04:00:36.974Z,100.00
2023-08-07T04:01:40.154Z,100.00
2023-08-07T04:02:43.012Z,100.00
2023-08-07T04:03:48.860Z,100.00
2023-08-07T04:04:51.794Z,100.00
2023-08-07T04:05:55.311Z,100.00
2023-08-07T04:06:58.732Z,100.00
2023-08-07T04:08:01.448Z,100.00
2023-08-07T04:09:04.766Z,100.00
2023-08-07T04:10:07.695Z,100.00
2023-08-07T04:11:11.909Z,100.00
2023-08-07T04:12:15.142Z,100.00
2023-08-07T04:13:17.861Z,100.00
2023-08-07T04:14:20.588Z,100.00
2023-08-07T04:15:23.563Z,100.00
2023-08-07T04:16:26.486Z,100.00
2023-08-07T04:17:30.233Z,100.00
2023-08-07T04:18:34.082Z,100.00
2023-08-07T04:19:37.460Z,100.00
2023-08-07T04:20:40.699Z,100.00
2023-08-07T04:21:43.413Z,100.00
2023-08-07T04:22:47.265Z,100.00
2023-08-07T04:23:50.129Z,100.00
2023-08-07T04:24:52.903Z,100.00
2023-08-07T04:25:56.090Z,100.00
2023-08-07T04:26:58.896Z,100.00
2023-08-07T04:28:02.041Z,100.00
2023-08-07T04:29:05.237Z,100.00
2023-08-07T04:30:08.635Z,100.00
2023-08-07T04:31:11.997Z,100.00
2023-08-07T04:32:14.937Z,100.00
2023-08-07T04:33:18.427Z,100.00
2023-08-07T04:34:21.164Z,100.00
2023-08-07T04:35:23.819Z,100.00
2023-08-07T04:36:26.495Z,100.00
2023-08-07T04:37:31.465Z,100.00
2023-08-07T04:38:35.328Z,100.00
2023-08-07T04:39:38.038Z,100.00
2023-08-07T04:40:45.527Z,100.00
2023-08-07T04:41:50.842Z,100.00
2023-08-07T04:42:53.621Z,100.00
2023-08-07T04:43:56.741Z,100.00
2023-08-07T04:44:59.429Z,100.00
2023-08-07T04:46:02.241Z,100.00
2023-08-07T04:47:05.313Z,100.00
2023-08-07T04:48:08.992Z,100.00
2023-08-07T04:49:12.041Z,100.00
2023-08-07T04:50:14.705Z,100.00
2023-08-07T04:51:17.326Z,100.00
2023-08-07T04:52:25.945Z,100.00
2023-08-07T04:53:29.629Z,100.00
2023-08-07T04:54:33.146Z,100.00
2023-08-07T04:55:36.202Z,100.00
2023-08-07T04:56:39.090Z,100.00
2023-08-07T04:57:41.732Z,100.00
2023-08-07T04:58:44.553Z,100.00
2023-08-07T04:59:47.547Z,100.00
2023-08-07T05:00:58.524Z,100.00
2023-08-07T05:02:01.284Z,100.00
2023-08-07T05:03:04.150Z,100.00
2023-08-07T05:04:06.998Z,100.00
2023-08-07T05:05:10.874Z,100.00
2023-08-07T05:06:13.681Z,100.00
2023-08-07T05:07:16.463Z,100.00
2023-08-07T05:08:19.083Z,100.00
2023-08-07T05:09:21.793Z,100.00
2023-08-07T05:10:24.758Z,100.00
2023-08-07T05:11:27.522Z,100.00
2023-08-07T05:12:30.771Z,100.00
2023-08-07T05:13:33.443Z,100.00
2023-08-07T05:14:36.099Z,100.00
2023-08-07T05:15:39.097Z,100.00
2023-08-07T05:16:41.839Z,100.00
2023-08-07T05:17:44.566Z,100.00
2023-08-07T05:18:49.262Z,100.00
2023-08-07T05:19:53.824Z,100.00
2023-08-07T05:20:56.865Z,100.00
2023-08-07T05:21:59.504Z,100.00
2023-08-07T05:23:02.157Z,100.00
2023-08-07T05:24:06.071Z,100.00
2023-08-07T05:25:10.439Z,100.00
2023-08-07T05:26:13.380Z,100.00
2023-08-07T05:27:16.490Z,100.00
2023-08-07T05:28:19.152Z,100.00
2023-08-07T05:29:22.017Z,100.00
2023-08-07T05:30:24.720Z,100.00
2023-08-07T05:31:29.643Z,100.00
2023-08-07T05:32:34.043Z,100.00
2023-08-07T05:33:36.868Z,100.00
2023-08-07T05:34:40.333Z,100.00
2023-08-07T05:35:43.015Z,100.00
2023-08-07T05:36:45.934Z,100.00
2023-08-07T05:37:48.624Z,100.00
2023-08-07T05:38:51.269Z,100.00
2023-08-07T05:39:54.482Z,100.00
2023-08-07T05:41:00.205Z,100.00
2023-08-07T05:42:03.568Z,100.00
2023-08-07T05:43:06.213Z,100.00
2023-08-07T05:44:08.952Z,100.00
2023-08-07T05:45:11.970Z,100.00
2023-08-07T05:46:14.575Z,100.00
2023-08-07T05:47:17.589Z,100.00
2023-08-07T05:48:20.266Z,100.00
2023-08-07T05:49:25.534Z,100.00
2023-08-07T05:50:29.232Z,100.00
2023-08-07T05:51:32.015Z,100.00
2023-08-07T05:52:35.149Z,100.00
2023-08-07T05:53:38.240Z,100.00
2023-08-07T05:54:41.003Z,100.00
2023-08-07T05:55:43.740Z,100.00
2023-08-07T05:56:46.527Z,100.00
2023-08-07T05:57:51.302Z,100.00
2023-08-07T05:58:53.973Z,100.00
2023-08-07T05:59:56.673Z,100.00
2023-08-07T06:00:59.462Z,100.00
2023-08-07T06:02:02.696Z,100.00
2023-08-07T06:03:05.674Z,100.00
2023-08-07T06:04:08.908Z,100.00
2023-08-07T06:05:14.062Z,100.00
2023-08-07T06:06:16.909Z,100.00
2023-08-07T06:07:19.963Z,100.00
2023-08-07T06:08:23.134Z,100.00
2023-08-07T06:09:28.374Z,100.00
2023-08-07T06:10:31.550Z,100.00
2023-08-07T06:11:34.484Z,100.00
2023-08-07T06:12:37.773Z,100.00
2023-08-07T06:13:42.283Z,100.00
2023-08-07T06:14:45.304Z,100.00
2023-08-07T06:15:48.133Z,100.00
2023-08-07T06:16:50.791Z,100.00
2023-08-07T06:17:54.262Z,100.00
2023-08-07T06:18:57.152Z,100.00
2023-08-07T06:20:00.570Z,100.00
2023-08-07T06:21:03.750Z,100.00
2023-08-07T06:22:06.650Z,100.00
2023-08-07T06:23:09.516Z,100.00
2023-08-07T06:24:12.478Z,100.00
2023-08-07T06:25:15.379Z,100.00
2023-08-07T06:26:18.105Z,100.00
2023-08-07T06:27:23.600Z,100.00
2023-08-07T06:28:27.213Z,100.00
2023-08-07T06:29:30.672Z,100.00
2023-08-07T06:30:35.827Z,100.00
2023-08-07T06:31:38.696Z,100.00
2023-08-07T06:32:41.545Z,100.00
2023-08-07T06:33:44.706Z,100.00
2023-08-07T06:34:47.973Z,100.00
2023-08-07T06:35:53.962Z,100.00
2023-08-07T06:36:57.045Z,100.00
2023-08-07T06:38:03.259Z,100.00
2023-08-07T06:39:06.611Z,100.00
2023-08-07T06:40:11.038Z,100.00
2023-08-07T06:41:14.333Z,100.00
2023-08-07T06:42:20.021Z,100.00
2023-08-07T06:43:23.244Z,100.00
2023-08-07T06:44:27.259Z,100.00
2023-08-07T06:45:30.008Z,100.00
2023-08-07T06:46:33.272Z,100.00
2023-08-07T06:47:36.109Z,100.00
2023-08-07T06:48:39.046Z,100.00
2023-08-07T06:49:45.253Z,100.00
2023-08-07T06:50:49.112Z,100.00
2023-08-07T06:51:52.153Z,100.00
2023-08-07T06:52:55.542Z,100.00
2023-08-07T06:54:02.787Z,100.00
2023-08-07T06:55:09.116Z,100.00
2023-08-07T06:56:12.105Z,100.00
2023-08-07T06:57:15.167Z,100.00
2023-08-07T06:58:18.388Z,100.00
2023-08-07T06:59:21.882Z,100.00
2023-08-07T07:00:24.972Z,100.00
2023-08-07T07:01:27.675Z,100.00
2023-08-07T07:02:30.590Z,100.00
2023-08-07T07:03:33.666Z,100.00
2023-08-07T07:04:38.033Z,100.00
2023-08-07T07:05:44.252Z,100.00
2023-08-07T07:06:47.456Z,100.00
2023-08-07T07:07:50.442Z,100.00
2023-08-07T07:08:56.705Z,100.00
2023-08-07T07:10:01.873Z,100.00
2023-08-07T07:11:06.451Z,100.00
2023-08-07T07:12:09.759Z,100.00
2023-08-07T07:13:12.379Z,100.00
2023-08-07T07:14:15.195Z,100.00
2023-08-07T07:15:18.414Z,100.00
2023-08-07T07:16:23.409Z,100.00
2023-08-07T07:17:28.657Z,100.00
2023-08-07T07:18:31.381Z,100.00
2023-08-07T07:19:34.584Z,100.00
2023-08-07T07:20:37.271Z,100.00
2023-08-07T07:21:40.425Z,100.00
2023-08-07T07:22:43.108Z,100.00
2023-08-07T07:23:45.859Z,100.00
2023-08-07T07:24:49.020Z,100.00
2023-08-07T07:25:51.858Z,100.00
2023-08-07T07:26:55.156Z,100.00
2023-08-07T07:27:58.199Z,100.00
2023-08-07T07:29:01.273Z,100.00
2023-08-07T07:30:04.253Z,100.00
2023-08-07T07:31:09.741Z,100.00
2023-08-07T07:32:12.914Z,100.00
2023-08-07T07:33:15.961Z,100.00
2023-08-07T07:34:18.642Z,100.00
2023-08-07T07:35:21.474Z,100.00
2023-08-07T07:36:24.402Z,100.00
2023-08-07T07:37:27.609Z,100.00
2023-08-07T07:38:30.766Z,100.00
2023-08-07T07:39:35.813Z,100.00
2023-08-07T07:40:39.076Z,100.00
2023-08-07T07:41:41.691Z,100.00
2023-08-07T07:42:44.709Z,100.00
2023-08-07T07:43:48.249Z,100.00
2023-08-07T07:44:50.971Z,100.00
2023-08-07T07:45:53.828Z,100.00
2023-08-07T07:46:56.688Z,100.00
2023-08-07T07:48:00.131Z,100.00
2023-08-07T07:49:04.838Z,100.00
2023-08-07T07:50:10.184Z,100.00
2023-08-07T07:51:12.948Z,100.00
2023-08-07T07:52:16.448Z,100.00
2023-08-07T07:53:19.745Z,100.00
2023-08-07T07:54:22.608Z,100.00
2023-08-07T07:55:27.091Z,100.00
2023-08-07T07:56:29.992Z,100.00
2023-08-07T07:57:32.710Z,100.00
2023-08-07T07:58:36.019Z,100.00
2023-08-07T07:59:38.890Z,100.00
2023-08-07T08:00:42.170Z,100.00
2023-08-07T08:01:45.358Z,100.00
2023-08-07T08:02:48.280Z,100.00
2023-08-07T08:03:51.183Z,100.00
2023-08-07T08:04:57.528Z,100.00
2023-08-07T08:06:01.262Z,100.00
2023-08-07T08:07:05.134Z,100.00
2023-08-07T08:08:11.641Z,100.00
2023-08-07T08:09:14.393Z,100.00
2023-08-07T08:10:17.587Z,100.00
2023-08-07T08:11:20.373Z,100.00
2023-08-07T08:12:23.546Z,100.00
2023-08-07T08:13:26.784Z,100.00
2023-08-07T08:14:31.627Z,100.00
2023-08-07T08:15:40.362Z,100.00
2023-08-07T08:16:43.138Z,100.00
2023-08-07T08:17:46.232Z,100.00
2023-08-07T08:18:48.995Z,100.00
2023-08-07T08:19:51.910Z,100.00
2023-08-07T08:20:55.390Z,100.00
2023-08-07T08:21:58.372Z,100.00
2023-08-07T08:23:01.681Z,100.00
2023-08-07T08:24:05.690Z,100.00
2023-08-07T08:25:09.112Z,100.00
2023-08-07T08:26:11.826Z,100.00
2023-08-07T08:27:14.600Z,100.00
2023-08-07T08:28:18.745Z,100.00
2023-08-07T08:29:21.477Z,100.00
2023-08-07T08:30:24.262Z,100.00
2023-08-07T08:31:27.028Z,100.00
2023-08-07T08:32:29.968Z,100.00
2023-08-07T08:33:32.961Z,100.00
2023-08-07T08:34:35.672Z,100.00
2023-08-07T08:35:38.348Z,100.00
2023-08-07T08:36:44.249Z,100.00
2023-08-07T08:37:47.053Z,100.00
2023-08-07T08:38:50.113Z,100.00
2023-08-07T08:39:52.734Z,100.00
2023-08-07T08:40:55.384Z,100.00
2023-08-07T08:41:59.003Z,100.00
2023-08-07T08:43:02.326Z,100.00
2023-08-07T08:44:07.432Z,100.00
2023-08-07T08:45:13.703Z,100.00
2023-08-07T08:46:19.809Z,100.00
2023-08-07T08:47:27.687Z,100.00
2023-08-07T08:48:32.696Z,100.00
2023-08-07T08:49:46.998Z,100.00
2023-08-07T08:50:51.494Z,100.00
2023-08-07T08:51:54.774Z,100.00
2023-08-07T08:52:58.271Z,100.00
2023-08-07T08:54:02.935Z,100.00
2023-08-07T08:55:07.818Z,100.00
2023-08-07T08:56:10.934Z,100.00
2023-08-07T08:57:14.292Z,100.00
2023-08-07T08:58:17.924Z,100.00
2023-08-07T08:59:22.831Z,99.95
2023-08-07T09:00:27.170Z,100.00
2023-08-07T09:01:31.849Z,100.00
2023-08-07T09:02:35.305Z,100.00
2023-08-07T09:03:40.906Z,100.00
2023-08-07T09:04:45.838Z,100.00
2023-08-07T09:05:53.870Z,100.00
2023-08-07T09:06:58.618Z,100.00
2023-08-07T09:08:02.567Z,100.00
2023-08-07T09:09:06.343Z,100.00
2023-08-07T09:10:12.524Z,100.00
2023-08-07T09:11:16.042Z,100.00
2023-08-07T09:12:24.225Z,100.00
2023-08-07T09:13:29.393Z,100.00
2023-08-07T09:14:38.173Z,100.00
2023-08-07T09:15:41.227Z,100.00
2023-08-07T09:16:49.495Z,100.00
2023-08-07T09:17:53.980Z,100.00
2023-08-07T09:18:56.768Z,100.00
2023-08-07T09:20:00.346Z,100.00
2023-08-07T09:21:03.508Z,100.00
2023-08-07T09:22:07.814Z,100.00
2023-08-07T09:23:10.569Z,100.00
2023-08-07T09:24:13.565Z,100.00
2023-08-07T09:25:27.345Z,100.00
2023-08-07T09:26:30.234Z,100.00
2023-08-07T09:27:34.326Z,100.00
2023-08-07T09:28:37.306Z,100.00
2023-08-07T09:29:41.293Z,100.00
2023-08-07T09:30:45.558Z,100.00
2023-08-07T09:31:48.936Z,100.00
2023-08-07T09:32:51.957Z,100.00
2023-08-07T09:33:54.721Z,100.00
2023-08-07T09:34:57.537Z,100.00
2023-08-07T09:36:02.081Z,100.00
2023-08-07T09:37:04.955Z,100.00
2023-08-07T09:38:09.086Z,100.00
2023-08-07T09:39:12.803Z,100.00
2023-08-07T09:40:17.093Z,100.00
2023-08-07T09:41:22.915Z,100.00
2023-08-07T09:42:25.660Z,100.00
2023-08-07T09:43:29.574Z,100.00
2023-08-07T09:44:38.696Z,100.00
2023-08-07T09:45:41.408Z,100.00
2023-08-07T09:46:45.534Z,100.00
2023-08-07T09:47:58.175Z,100.00
2023-08-07T09:49:01.321Z,100.00
2023-08-07T09:50:04.313Z,100.00
2023-08-07T09:51:07.207Z,100.00
2023-08-07T09:52:12.162Z,100.00
2023-08-07T09:53:14.851Z,100.00
2023-08-07T09:54:17.832Z,100.00
2023-08-07T09:55:20.728Z,100.00
2023-08-07T09:56:23.527Z,100.00
2023-08-07T09:57:26.866Z,100.00
2023-08-07T09:58:30.480Z,100.00
2023-08-07T09:59:34.432Z,99.80
2023-08-07T10:00:37.206Z,100.00
2023-08-07T10:01:41.532Z,100.00
2023-08-07T10:02:44.571Z,100.00
2023-08-07T10:03:47.653Z,100.00
2023-08-07T10:04:51.856Z,100.00
2023-08-07T10:05:55.100Z,100.00
2023-08-07T10:06:59.002Z,100.00
2023-08-07T10:08:02.332Z,98.89
2023-08-07T10:09:05.298Z,99.53
2023-08-07T10:10:09.267Z,100.00
2023-08-07T10:11:12.803Z,100.00
2023-08-07T10:12:18.048Z,100.00
2023-08-07T10:13:28.074Z,100.00
2023-08-07T10:14:43.031Z,100.00
2023-08-07T10:15:46.559Z,100.00
2023-08-07T10:16:50.645Z,100.00
2023-08-07T10:17:53.847Z,97.56
2023-08-07T10:18:56.885Z,96.78
2023-08-07T10:19:59.818Z,95.16
2023-08-07T10:21:06.863Z,94.68
2023-08-07T10:22:09.726Z,95.09
2023-08-07T10:23:14.060Z,96.79
2023-08-07T10:24:17.410Z,98.02
2023-08-07T10:25:23.909Z,99.59
2023-08-07T10:26:27.595Z,97.14
2023-08-07T10:27:37.264Z,95.12
2023-08-07T10:28:42.782Z,94.91
2023-08-07T10:29:48.705Z,97.03
2023-08-07T10:30:52.145Z,90.60
2023-08-07T10:31:55.620Z,92.92
2023-08-07T10:32:59.672Z,89.66
2023-08-07T10:34:03.387Z,91.78
2023-08-07T10:35:06.681Z,93.18
2023-08-07T10:36:11.303Z,93.88
2023-08-07T10:37:33.075Z,93.14
2023-08-07T10:38:36.818Z,95.55
2023-08-07T10:40:04.142Z,93.76
2023-08-07T10:41:08.992Z,95.30
2023-08-07T10:42:13.237Z,96.26
2023-08-07T10:43:19.024Z,94.61
2023-08-07T10:44:34.902Z,98.07
2023-08-07T10:45:38.070Z,98.23
2023-08-07T10:46:58.006Z,95.16
2023-08-07T10:48:12.002Z,98.45
2023-08-07T10:49:33.375Z,95.98
2023-08-07T10:50:49.836Z,95.87
2023-08-07T10:51:53.154Z,93.76
2023-08-07T10:52:55.792Z,92.94
2023-08-07T10:53:58.522Z,93.72
2023-08-07T10:55:01.158Z,90.73
2023-08-07T10:56:05.288Z,95.16
2023-08-07T10:57:11.746Z,91.22
2023-08-07T10:58:37.502Z,88.91
2023-08-07T10:59:44.860Z,90.98
2023-08-07T11:00:47.528Z,91.42
2023-08-07T11:01:56.928Z,88.29
2023-08-07T11:03:02.107Z,89.73
2023-08-07T11:04:11.200Z,91.60
2023-08-07T11:05:14.154Z,88.39
2023-08-07T11:06:18.409Z,89.30
2023-08-07T11:07:28.521Z,90.03
2023-08-07T11:08:31.952Z,89.15
2023-08-07T11:09:35.119Z,90.89
2023-08-07T11:10:37.812Z,93.00
2023-08-07T11:11:46.116Z,93.92
2023-08-07T11:12:49.822Z,93.02
2023-08-07T11:13:52.815Z,89.57
2023-08-07T11:14:58.132Z,92.26
2023-08-07T11:16:03.250Z,94.50
2023-08-07T11:17:06.800Z,90.82
2023-08-07T11:18:10.132Z,91.11
2023-08-07T11:19:15.399Z,92.25
2023-08-07T11:20:18.426Z,91.47
2023-08-07T11:21:21.666Z,93.31
2023-08-07T11:22:24.634Z,90.42
2023-08-07T11:23:28.427Z,92.20
2023-08-07T11:24:31.370Z,91.01
2023-08-07T11:25:34.178Z,93.40
2023-08-07T11:26:36.938Z,90.19
2023-08-07T11:27:39.678Z,91.62
2023-08-07T11:28:42.387Z,90.46
2023-08-07T11:29:49.735Z,91.94
2023-08-07T11:30:54.377Z,91.19
2023-08-07T11:31:57.688Z,88.54
2023-08-07T11:33:03.197Z,89.49
2023-08-07T11:34:05.976Z,88.55
2023-08-07T11:35:09.460Z,86.65
2023-08-07T11:36:13.961Z,88.41
2023-08-07T11:37:18.488Z,88.91
2023-08-07T11:38:32.202Z,88.30
2023-08-07T11:39:43.113Z,91.57
2023-08-07T11:40:46.105Z,92.05
2023-08-07T11:41:49.301Z,91.10
2023-08-07T11:42:52.016Z,90.55
2023-08-07T11:43:54.694Z,89.09
2023-08-07T11:44:57.363Z,92.37
2023-08-07T11:46:02.840Z,89.29
2023-08-07T11:47:06.222Z,88.16
2023-08-07T11:48:08.870Z,87.40
2023-08-07T11:49:12.416Z,86.26
2023-08-07T11:50:15.329Z,86.72
2023-08-07T11:51:18.334Z,92.02
2023-08-07T11:52:21.325Z,90.07
2023-08-07T11:53:28.070Z,91.78
2023-08-07T11:54:39.909Z,90.55
2023-08-07T11:55:58.322Z,92.38
2023-08-07T11:57:01.566Z,91.70
2023-08-07T11:58:04.865Z,91.88
2023-08-07T11:59:08.141Z,87.12
2023-08-07T12:00:14.439Z,89.20
2023-08-07T12:01:22.163Z,86.38
2023-08-07T12:02:26.613Z,87.95
2023-08-07T12:03:31.229Z,87.64
2023-08-07T12:04:36.900Z,88.05
2023-08-07T12:05:42.146Z,87.34
2023-08-07T12:06:58.604Z,88.74
2023-08-07T12:08:01.894Z,88.04
2023-08-07T12:09:04.828Z,88.04
2023-08-07T12:10:12.074Z,90.21
2023-08-07T12:11:16.827Z,90.38
2023-08-07T12:12:20.753Z,90.96
2023-08-07T12:13:29.779Z,90.20
2023-08-07T12:14:32.821Z,89.85
2023-08-07T12:15:35.521Z,89.38
2023-08-07T12:16:38.414Z,90.18
2023-08-07T12:17:41.474Z,92.44
2023-08-07T12:18:49.156Z,90.76
2023-08-07T12:19:51.911Z,91.49
2023-08-07T12:21:00.491Z,92.94
2023-08-07T12:22:05.271Z,90.99
2023-08-07T12:23:15.569Z,92.34
2023-08-07T12:24:19.271Z,92.73
2023-08-07T12:25:21.945Z,93.14
2023-08-07T12:26:25.076Z,94.76
2023-08-07T12:27:27.824Z,94.23
2023-08-07T12:28:30.771Z,92.14
2023-08-07T12:29:33.477Z,89.37
2023-08-07T12:30:37.243Z,89.28
2023-08-07T12:31:40.342Z,89.18
2023-08-07T12:32:43.196Z,88.68
2023-08-07T12:33:46.259Z,88.60
2023-08-07T12:35:57.515Z,91.00
2023-08-07T12:37:00.554Z,88.37
2023-08-07T12:38:04.233Z,89.17
2023-08-07T12:39:07.800Z,86.70
2023-08-07T12:42:24.892Z,88.23
2023-08-07T12:43:27.862Z,87.76
2023-08-07T12:44:30.890Z,86.30
2023-08-07T12:46:41.323Z,85.84
2023-08-07T12:47:44.129Z,87.05
2023-08-07T12:48:46.814Z,86.15
2023-08-07T12:49:50.004Z,88.11
2023-08-07T12:50:52.612Z,87.57
2023-08-07T12:51:57.030Z,89.25
2023-08-07T12:53:00.220Z,86.70
2023-08-07T12:54:02.992Z,88.01
2023-08-07T12:55:06.863Z,88.70
2023-08-07T12:56:09.720Z,88.22
2023-08-07T12:57:12.424Z,87.09
2023-08-07T12:58:16.589Z,86.40
2023-08-07T12:59:19.290Z,85.00
2023-08-07T13:00:23.453Z,87.81
2023-08-07T13:01:27.029Z,89.99
2023-08-07T13:02:29.907Z,91.30
2023-08-07T13:03:32.538Z,87.82
2023-08-07T13:04:35.438Z,86.82
2023-08-07T13:05:38.671Z,86.38
2023-08-07T13:06:41.546Z,88.68
2023-08-07T13:07:44.510Z,87.18
2023-08-07T13:08:47.402Z,89.48
2023-08-07T13:09:50.048Z,88.70
2023-08-07T13:10:53.132Z,88.20
2023-08-07T13:11:55.825Z,90.29
2023-08-07T13:12:58.527Z,90.51
2023-08-07T13:14:01.228Z,89.30
2023-08-07T13:15:09.384Z,91.50
2023-08-07T13:16:12.300Z,90.75
2023-08-07T13:17:15.092Z,87.89
2023-08-07T13:18:18.014Z,90.18
2023-08-07T13:19:20.841Z,89.74
2023-08-07T13:20:23.624Z,88.01
2023-08-07T13:21:26.724Z,89.39
2023-08-07T13:22:29.615Z,89.44
2023-08-07T13:23:32.337Z,90.12
2023-08-07T13:24:35.018Z,89.61
2023-08-07T13:25:37.804Z,91.02
2023-08-07T13:26:45.913Z,89.54
2023-08-07T13:27:48.540Z,91.76
2023-08-07T13:28:51.535Z,90.52
2023-08-07T13:29:54.181Z,92.23
2023-08-07T13:30:57.547Z,89.94